Pagrindinis puslapis
METAR-TAF:

METAR-TAF

Oro uostai :

Leuchars, Škotija

platuma: 56-23N, ilguma: 002-52W, Aukštis: 12 m

Dabartinis oras

Ataskaita buvo paskelbta 46 minutes, ne 17:50 UTC
Vėjas 16 kt iš Pietvakarių
Temperatūra 6°C
Drėgmė 70%
Slėgis 994 hPa
Matomumas 10 km arba daugiau
Mažai debesys ne aukštis 4000 ft
Mažai debesys ne aukštis 19000 ft

METAR: EGQL 291750Z 22016KT 9999 FEW040 FEW190 06/01 Q0994 RMK BLU

Laikas: 18:36 (18:36 UTC)

Prognozė

Ataskaita buvo paskelbta 1 valandą ir 56 minutes, ne 16:40 UTC
Prognozė galioja nuo 29 metu 18 UTC su 01 metu 03 UTC
Vėjas 12 kt iš Vakarų/Pietvakarių
Matomumas 10 km arba daugiau
Išsisklaidę debesys ne aukštis 4000 ft

TAF: EGQL 291640Z 2918/0103 24012KT 9999 SCT040

Orai ataskaitas ir orų prognozės (METAR, TAF).

turimą stotys yra geltonos ir raudonos taškus žemėlapyje.

Perkelti pele per norėdami pamatyti stoties vardą.

Tada spustelėkite, norėdami matyti oro stebėjimo ir prognozės.

Norėdami pakeisti žemėlapį: spustelėkite ant žalios mygtukų su juodo kryžiaus žemyn,; žalią mygtuką su brūkšneliu, jei norite nutolinti; arba žalių rodyklių gretimoms žemėlapius.


METAR-TAF: